Lindenwood, Illinois
Current Conditions -  °F | °C
As of 6:15 AM on Friday 28 Nov 2014 (Local Time) from KRPJ Reporting Station
Overcast Overcast  
Wind Chill: -16°   Ceiling: 7000
Heat Index: -9°   Visibility: 10mi
Dew Point: -11°   Wind: 12mph
Humidity: 81%   Direction: 160°SSE
Pressure: 30.27"   Gusts: NA
Location:  42.05°N, 89.03°W
Report Text: KRPJ 281215Z AUTO 16010KT 10SM OVC070 M08/M11 A3027 RMK AO2 T10851112
Loading
Personal Weather Stations






























Interactive Weather Map New forecast layout! Learn more

10-Day Weather Forecast

Advertisements
Track Severe Weather on mobile